Impacts TAF Board INFO
FOR SITUATIONAL AWARENESS. NOT TO BE USED FOR FLIGHT PLANNING PURPOSES.
IDs:

KSFO - San Francisco Intl, CA, US

Issued at 2100 UTC 23 Jan 2018
Updated at 2145 UTC 23 Jan 2018
Potential Impact None Slight Moderate High
Time<<24/10Z 24/11Z 24/12Z 24/13Z 24/14Z 24/15Z 24/16Z 24/17Z 24/18Z 24/19Z 24/20Z 24/21Z 24/22Z>>
Type PRVL PRVL PRVL PRVL PRVL PRVL PRVL PRVL PRVL PRVL PRVL PRVL PRVL
VIS >6 >6 >6 >6 >6 >6 >6 >6 >6 >6 6 6 6
CIG -- 50 50 50 50 25 25 25 25 25 30 30 30
Cover SCT BKN BKN BKN BKN BKN BKN BKN BKN BKN OVC OVC OVC
FltCat VFR VFR VFR VFR VFR MVFR MVFR MVFR MVFR MVFR MVFR MVFR MVFR
WX -- -- -- -- -- -- -- -- -- -- -RA -RA -RA
WDir 180 170 170 170 170 170 170 170 170 170 200 200 200
WSpd 4 5 5 5 5 10 10 10 10 10 17 17 17
WGst -- -- -- -- -- -- -- -- -- -- 22 22 22

Raw TAF
KSFO 232100Z 2321/2424 09003KT P6SM FEW020
  FM232200 34005KT P6SM SCT200
  FM240400 18004KT P6SM SCT200
  FM241100 17005KT P6SM BKN050
  FM241500 17010KT P6SM BKN025
  FM242000 20017G22KT 6SM -RA OVC030


METAR Board
Radar Display
Forecast Discussion

FOR SITUATIONAL AWARENESS. NOT TO BE USED FOR FLIGHT PLANNING PURPOSES.